sensor_id;sensor_type;location;lat;lon;timestamp;pressure;altitude;pressure_sealevel;temperature
79756;BMP280;69239;50.678;12.280;2023-11-21T00:01:15;96910.31;;;8.23
79756;BMP280;69239;50.678;12.280;2023-11-21T00:03:41;96906.34;;;8.26
79756;BMP280;69239;50.678;12.280;2023-11-21T00:06:06;96910.31;;;8.23
79756;BMP280;69239;50.678;12.280;2023-11-21T00:08:35;96908.81;;;8.22
79756;BMP280;69239;50.678;12.280;2023-11-21T00:11:01;96914.66;;;8.19
79756;BMP280;69239;50.678;12.280;2023-11-21T00:13:26;96920.69;;;8.20
79756;BMP280;69239;50.678;12.280;2023-11-21T00:15:52;96922.22;;;8.21
79756;BMP280;69239;50.678;12.280;2023-11-21T00:18:17;96924.53;;;8.22
79756;BMP280;69239;50.678;12.280;2023-11-21T00:20:43;96915.75;;;8.18
79756;BMP280;69239;50.678;12.280;2023-11-21T00:23:08;96918.81;;;8.20
79756;BMP280;69239;50.678;12.280;2023-11-21T00:25:35;96919.28;;;8.22
79756;BMP280;69239;50.678;12.280;2023-11-21T00:28:00;96928.66;;;8.23
79756;BMP280;69239;50.678;12.280;2023-11-21T00:30:27;96919.91;;;8.19
79756;BMP280;69239;50.678;12.280;2023-11-21T00:32:53;96919.59;;;8.21
79756;BMP280;69239;50.678;12.280;2023-11-21T00:35:18;96930.72;;;8.26
79756;BMP280;69239;50.678;12.280;2023-11-21T00:37:44;96927.47;;;8.21
79756;BMP280;69239;50.678;12.280;2023-11-21T00:40:10;96932.41;;;8.22
79756;BMP280;69239;50.678;12.280;2023-11-21T00:42:35;96934.56;;;8.20
79756;BMP280;69239;50.678;12.280;2023-11-21T00:45:01;96937.19;;;8.20
79756;BMP280;69239;50.678;12.280;2023-11-21T00:47:27;96941.97;;;8.18
79756;BMP280;69239;50.678;12.280;2023-11-21T00:49:52;96952.28;;;8.23
79756;BMP280;69239;50.678;12.280;2023-11-21T00:52:18;96946.59;;;8.21
79756;BMP280;69239;50.678;12.280;2023-11-21T00:54:43;96948.13;;;8.22
79756;BMP280;69239;50.678;12.280;2023-11-21T00:57:10;96950.13;;;8.25
79756;BMP280;69239;50.678;12.280;2023-11-21T00:59:37;96941.50;;;8.25
79756;BMP280;69239;50.678;12.280;2023-11-21T01:02:02;96942.88;;;8.22
79756;BMP280;69239;50.678;12.280;2023-11-21T01:04:30;96936.22;;;8.16
79756;BMP280;69239;50.678;12.280;2023-11-21T01:06:57;96943.50;;;8.19
79756;BMP280;69239;50.678;12.280;2023-11-21T01:09:22;96950.13;;;8.25
79756;BMP280;69239;50.678;12.280;2023-11-21T01:11:47;96942.88;;;8.22
79756;BMP280;69239;50.678;12.280;2023-11-21T01:14:13;96950.75;;;8.22
79756;BMP280;69239;50.678;12.280;2023-11-21T01:16:39;96947.78;;;8.24
79756;BMP280;69239;50.678;12.280;2023-11-21T01:19:04;96956.31;;;8.29
79756;BMP280;69239;50.678;12.280;2023-11-21T01:21:30;96937.19;;;8.20
79756;BMP280;69239;50.678;12.280;2023-11-21T01:23:56;96957.09;;;8.30
79756;BMP280;69239;50.678;12.280;2023-11-21T01:26:22;96956.94;;;8.26
79756;BMP280;69239;50.678;12.280;2023-11-21T01:28:47;96959.44;;;8.31
79756;BMP280;69239;50.678;12.280;2023-11-21T01:31:15;96965.13;;;8.33
79756;BMP280;69239;50.678;12.280;2023-11-21T01:33:40;96950.41;;;8.24
79756;BMP280;69239;50.678;12.280;2023-11-21T01:36:06;96947.97;;;8.27
79756;BMP280;69239;50.678;12.280;2023-11-21T01:38:32;96951.06;;;8.29
79756;BMP280;69239;50.678;12.280;2023-11-21T01:40:57;96955.41;;;8.34
79756;BMP280;69239;50.678;12.280;2023-11-21T01:43:26;96931.94;;;8.20
79756;BMP280;69239;50.678;12.280;2023-11-21T01:45:52;96948.28;;;8.34
79756;BMP280;69239;50.678;12.280;2023-11-21T01:48:18;96946.44;;;8.35
79756;BMP280;69239;50.678;12.280;2023-11-21T01:50:43;96944.59;;;8.35
79756;BMP280;69239;50.678;12.280;2023-11-21T01:53:11;96951.69;;;8.35
79756;BMP280;69239;50.678;12.280;2023-11-21T01:55:40;96952.63;;;8.30
79756;BMP280;69239;50.678;12.280;2023-11-21T01:58:05;96950.00;;;8.30
79756;BMP280;69239;50.678;12.280;2023-11-21T02:00:32;96952.91;;;8.29
79756;BMP280;69239;50.678;12.280;2023-11-21T02:02:58;96951.69;;;8.26
79756;BMP280;69239;50.678;12.280;2023-11-21T02:05:24;96951.22;;;8.24
79756;BMP280;69239;50.678;12.280;2023-11-21T02:07:51;96962.00;;;8.23
79756;BMP280;69239;50.678;12.280;2023-11-21T02:10:18;96957.06;;;8.21
79756;BMP280;69239;50.678;12.280;2023-11-21T02:12:48;96963.41;;;8.20
79756;BMP280;69239;50.678;12.280;2023-11-21T02:15:16;96967.88;;;8.20
79756;BMP280;69239;50.678;12.280;2023-11-21T02:17:54;96976.50;;;8.20
79756;BMP280;69239;50.678;12.280;2023-11-21T02:20:21;96971.56;;;8.19
79756;BMP280;69239;50.678;12.280;2023-11-21T02:22:50;96972.34;;;8.19
79756;BMP280;69239;50.678;12.280;2023-11-21T02:25:18;96968.94;;;8.19
79756;BMP280;69239;50.678;12.280;2023-11-21T02:27:43;96978.50;;;8.23
79756;BMP280;69239;50.678;12.280;2023-11-21T02:30:13;96972.50;;;8.23
79756;BMP280;69239;50.678;12.280;2023-11-21T02:32:39;96968.00;;;8.23
79756;BMP280;69239;50.678;12.280;2023-11-21T02:35:05;96973.25;;;8.23
79756;BMP280;69239;50.678;12.280;2023-11-21T02:37:33;96973.25;;;8.23
79756;BMP280;69239;50.678;12.280;2023-11-21T02:39:58;96969.56;;;8.24
79756;BMP280;69239;50.678;12.280;2023-11-21T02:42:24;96969.56;;;8.24
79756;BMP280;69239;50.678;12.280;2023-11-21T02:44:50;96972.50;;;8.23
79756;BMP280;69239;50.678;12.280;2023-11-21T02:47:15;96965.88;;;8.25
79756;BMP280;69239;50.678;12.280;2023-11-21T02:49:40;96975.28;;;8.26
79756;BMP280;69239;50.678;12.280;2023-11-21T02:52:06;96968.97;;;8.27
79756;BMP280;69239;50.678;12.280;2023-11-21T02:54:31;96963.72;;;8.27
79756;BMP280;69239;50.678;12.280;2023-11-21T02:57:01;96981.00;;;8.28
79756;BMP280;69239;50.678;12.280;2023-11-21T02:59:27;96971.13;;;8.25
79756;BMP280;69239;50.678;12.280;2023-11-21T03:01:53;96975.75;;;8.28
79756;BMP280;69239;50.678;12.280;2023-11-21T03:04:18;96975.75;;;8.28
79756;BMP280;69239;50.678;12.280;2023-11-21T03:06:44;96965.25;;;8.28
79756;BMP280;69239;50.678;12.280;2023-11-21T03:09:10;96979.91;;;8.29
79756;BMP280;69239;50.678;12.280;2023-11-21T03:11:38;96968.19;;;8.27
79756;BMP280;69239;50.678;12.280;2023-11-21T03:14:04;96977.28;;;8.29
79756;BMP280;69239;50.678;12.280;2023-11-21T03:16:31;96969.56;;;8.24
79756;BMP280;69239;50.678;12.280;2023-11-21T03:18:56;96964.50;;;8.28
79756;BMP280;69239;50.678;12.280;2023-11-21T03:21:22;96971.28;;;8.29
79756;BMP280;69239;50.678;12.280;2023-11-21T03:23:47;96965.88;;;8.25
79756;BMP280;69239;50.678;12.280;2023-11-21T03:26:12;96979.16;;;8.29
79756;BMP280;69239;50.678;12.280;2023-11-21T03:28:38;96982.06;;;8.27
79756;BMP280;69239;50.678;12.280;2023-11-21T03:31:04;96982.84;;;8.28
79756;BMP280;69239;50.678;12.280;2023-11-21T03:33:29;96982.06;;;8.27
79756;BMP280;69239;50.678;12.280;2023-11-21T03:35:54;96976.38;;;8.25
79756;BMP280;69239;50.678;12.280;2023-11-21T03:38:20;96979.44;;;8.27
79756;BMP280;69239;50.678;12.280;2023-11-21T03:40:45;96973.75;;;8.25
79756;BMP280;69239;50.678;12.280;2023-11-21T03:43:12;96975.28;;;8.26
79756;BMP280;69239;50.678;12.280;2023-11-21T03:45:37;96976.63;;;8.24
79756;BMP280;69239;50.678;12.280;2023-11-21T03:48:03;96986.06;;;8.25
79756;BMP280;69239;50.678;12.280;2023-11-21T03:50:29;96987.47;;;8.22
79756;BMP280;69239;50.678;12.280;2023-11-21T03:52:54;96986.53;;;8.18
79756;BMP280;69239;50.678;12.280;2023-11-21T03:55:20;96988.66;;;8.16
79756;BMP280;69239;50.678;12.280;2023-11-21T03:57:45;96984.97;;;8.17
79756;BMP280;69239;50.678;12.280;2023-11-21T04:00:11;96989.44;;;8.17
79756;BMP280;69239;50.678;12.280;2023-11-21T04:02:36;96992.84;;;8.17
79756;BMP280;69239;50.678;12.280;2023-11-21T04:05:02;96990.81;;;8.14
79756;BMP280;69239;50.678;12.280;2023-11-21T04:07:28;96997.59;;;8.15
79756;BMP280;69239;50.678;12.280;2023-11-21T04:09:53;96994.50;;;8.13
79756;BMP280;69239;50.678;12.280;2023-11-21T04:12:19;96993.00;;;8.12
79756;BMP280;69239;50.678;12.280;2023-11-21T04:14:44;96994.66;;;8.08
79756;BMP280;69239;50.678;12.280;2023-11-21T04:17:10;96989.53;;;8.03
79756;BMP280;69239;50.678;12.280;2023-11-21T04:19:35;96997.56;;;8.06
79756;BMP280;69239;50.678;12.280;2023-11-21T04:22:01;97000.50;;;8.05
79756;BMP280;69239;50.678;12.280;2023-11-21T04:24:26;97001.09;;;8.02
79756;BMP280;69239;50.678;12.280;2023-11-21T04:26:52;97005.88;;;8.00
79756;BMP280;69239;50.678;12.280;2023-11-21T04:29:17;97012.19;;;7.99
79756;BMP280;69239;50.678;12.280;2023-11-21T04:31:42;97013.28;;;7.98
79756;BMP280;69239;50.678;12.280;2023-11-21T04:34:08;97013.09;;;7.94
79756;BMP280;69239;50.678;12.280;2023-11-21T04:36:33;97012.31;;;7.94
79756;BMP280;69239;50.678;12.280;2023-11-21T04:39:00;97009.84;;;7.89
79756;BMP280;69239;50.678;12.280;2023-11-21T04:41:25;97011.41;;;7.90
79756;BMP280;69239;50.678;12.280;2023-11-21T04:43:51;97016.63;;;7.90
79756;BMP280;69239;50.678;12.280;2023-11-21T04:46:16;97015.09;;;7.89
79756;BMP280;69239;50.678;12.280;2023-11-21T04:48:41;97019.25;;;7.90
79756;BMP280;69239;50.678;12.280;2023-11-21T04:51:07;97028.19;;;7.89
79756;BMP280;69239;50.678;12.280;2023-11-21T04:53:32;97027.13;;;7.90
79756;BMP280;69239;50.678;12.280;2023-11-21T04:55:58;97028.66;;;7.91
79756;BMP280;69239;50.678;12.280;2023-11-21T04:58:25;97033.91;;;7.91
79756;BMP280;69239;50.678;12.280;2023-11-21T05:00:50;97028.66;;;7.91
79756;BMP280;69239;50.678;12.280;2023-11-21T05:03:15;97026.34;;;7.89
79756;BMP280;69239;50.678;12.280;2023-11-21T05:05:41;97027.13;;;7.90
79756;BMP280;69239;50.678;12.280;2023-11-21T05:08:06;97024.50;;;7.90
79756;BMP280;69239;50.678;12.280;2023-11-21T05:10:31;97029.75;;;7.90
79756;BMP280;69239;50.678;12.280;2023-11-21T05:12:57;97034.97;;;7.90
79756;BMP280;69239;50.678;12.280;2023-11-21T05:15:23;97032.38;;;7.90
79756;BMP280;69239;50.678;12.280;2023-11-21T05:17:49;97033.91;;;7.91
79756;BMP280;69239;50.678;12.280;2023-11-21T05:20:17;97028.66;;;7.91
79756;BMP280;69239;50.678;12.280;2023-11-21T05:22:48;97040.66;;;7.92
79756;BMP280;69239;50.678;12.280;2023-11-21T05:25:14;97035.41;;;7.92
79756;BMP280;69239;50.678;12.280;2023-11-21T05:27:40;97039.91;;;7.91
79756;BMP280;69239;50.678;12.280;2023-11-21T05:30:05;97043.63;;;7.90
79756;BMP280;69239;50.678;12.280;2023-11-21T05:32:34;97043.22;;;8.05
79756;BMP280;69239;50.678;12.280;2023-11-21T05:35:00;97045.47;;;8.29
79756;BMP280;69239;50.678;12.280;2023-11-21T05:37:26;97044.25;;;8.35
79756;BMP280;69239;50.678;12.280;2023-11-21T05:39:53;97043.47;;;8.35
79756;BMP280;69239;50.678;12.280;2023-11-21T05:42:21;97039.16;;;8.30
79756;BMP280;69239;50.678;12.280;2023-11-21T05:44:47;97041.59;;;8.27
79756;BMP280;69239;50.678;12.280;2023-11-21T05:47:12;97041.41;;;8.23
79756;BMP280;69239;50.678;12.280;2023-11-21T05:49:38;97042.06;;;8.20
79756;BMP280;69239;50.678;12.280;2023-11-21T05:52:04;97038.47;;;8.16
79756;BMP280;69239;50.678;12.280;2023-11-21T05:54:30;97046.34;;;8.16
79756;BMP280;69239;50.678;12.280;2023-11-21T05:56:55;97050.03;;;8.15
79756;BMP280;69239;50.678;12.280;2023-11-21T05:59:21;97049.88;;;8.11
79756;BMP280;69239;50.678;12.280;2023-11-21T06:01:46;97050.66;;;8.12
79756;BMP280;69239;50.678;12.280;2023-11-21T06:04:12;97058.97;;;8.14
79756;BMP280;69239;50.678;12.280;2023-11-21T06:06:38;97054.38;;;8.11
79756;BMP280;69239;50.678;12.280;2023-11-21T06:09:04;97063.44;;;8.13
79756;BMP280;69239;50.678;12.280;2023-11-21T06:11:31;97068.69;;;8.13
79756;BMP280;69239;50.678;12.280;2023-11-21T06:13:56;97071.16;;;8.10
79756;BMP280;69239;50.678;12.280;2023-11-21T06:16:22;97069.72;;;8.04
79756;BMP280;69239;50.678;12.280;2023-11-21T06:18:47;97077.72;;;7.99
79756;BMP280;69239;50.678;12.280;2023-11-21T06:21:13;97079.09;;;7.96
79756;BMP280;69239;50.678;12.280;2023-11-21T06:23:39;97070.94;;;7.98
79756;BMP280;69239;50.678;12.280;2023-11-21T06:26:05;97075.75;;;8.04
79756;BMP280;69239;50.678;12.280;2023-11-21T06:28:31;97078.66;;;8.03
79756;BMP280;69239;50.678;12.280;2023-11-21T06:30:57;97083.75;;;7.99
79756;BMP280;69239;50.678;12.280;2023-11-21T06:33:31;97085.56;;;7.90
79756;BMP280;69239;50.678;12.280;2023-11-21T06:36:22;97083.63;;;7.82
79756;BMP280;69239;50.678;12.280;2023-11-21T06:38:47;97093.75;;;7.75
79756;BMP280;69239;50.678;12.280;2023-11-21T06:41:13;97098.16;;;7.66
79756;BMP280;69239;50.678;12.280;2023-11-21T06:43:40;97097.47;;;7.60
79756;BMP280;69239;50.678;12.280;2023-11-21T06:46:05;97100.81;;;7.52
79756;BMP280;69239;50.678;12.280;2023-11-21T06:48:31;97103.56;;;7.47
79756;BMP280;69239;50.678;12.280;2023-11-21T06:50:56;97111.53;;;7.42
79756;BMP280;69239;50.678;12.280;2023-11-21T06:53:22;97106.84;;;7.39
79756;BMP280;69239;50.678;12.280;2023-11-21T06:55:47;97116.38;;;7.35
79756;BMP280;69239;50.678;12.280;2023-11-21T06:58:12;97123.78;;;7.33
79756;BMP280;69239;50.678;12.280;2023-11-21T07:00:39;97112.13;;;7.25
79756;BMP280;69239;50.678;12.280;2023-11-21T07:03:05;97132.69;;;7.32
79756;BMP280;69239;50.678;12.280;2023-11-21T07:05:30;97124.34;;;7.30
79756;BMP280;69239;50.678;12.280;2023-11-21T07:07:56;97122.81;;;7.29
79756;BMP280;69239;50.678;12.280;2023-11-21T07:10:21;97133.44;;;7.32
79756;BMP280;69239;50.678;12.280;2023-11-21T07:12:47;97124.94;;;7.27
79756;BMP280;69239;50.678;12.280;2023-11-21T07:15:12;97134.41;;;7.36
79756;BMP280;69239;50.678;12.280;2023-11-21T07:17:38;97125.56;;;7.46
79756;BMP280;69239;50.678;12.280;2023-11-21T07:20:05;97136.66;;;7.65
79756;BMP280;69239;50.678;12.280;2023-11-21T07:22:31;97139.03;;;7.89
79756;BMP280;69239;50.678;12.280;2023-11-21T07:24:57;97141.44;;;8.08
79756;BMP280;69239;50.678;12.280;2023-11-21T07:27:22;97143.53;;;8.20
79756;BMP280;69239;50.678;12.280;2023-11-21T07:29:48;97148.50;;;8.30
79756;BMP280;69239;50.678;12.280;2023-11-21T07:32:14;97147.31;;;8.67
79756;BMP280;69239;50.678;12.280;2023-11-21T07:34:40;97151.34;;;9.82
79756;BMP280;69239;50.678;12.280;2023-11-21T07:37:07;97146.69;;;10.81
79756;BMP280;69239;50.678;12.280;2023-11-21T07:39:34;97150.63;;;10.95
79756;BMP280;69239;50.678;12.280;2023-11-21T07:42:01;97154.22;;;10.70
79756;BMP280;69239;50.678;12.280;2023-11-21T07:44:27;97151.06;;;10.39
79756;BMP280;69239;50.678;12.280;2023-11-21T07:46:53;97154.53;;;10.13
79756;BMP280;69239;50.678;12.280;2023-11-21T07:49:23;97156.28;;;9.92
79756;BMP280;69239;50.678;12.280;2023-11-21T07:51:48;97157.38;;;9.82
79756;BMP280;69239;50.678;12.280;2023-11-21T07:54:14;97160.59;;;9.71
79756;BMP280;69239;50.678;12.280;2023-11-21T07:56:39;97161.69;;;9.61
79756;BMP280;69239;50.678;12.280;2023-11-21T07:59:04;97167.13;;;9.47
79756;BMP280;69239;50.678;12.280;2023-11-21T08:01:30;97172.50;;;9.42
79756;BMP280;69239;50.678;12.280;2023-11-21T08:03:56;97160.28;;;9.29
79756;BMP280;69239;50.678;12.280;2023-11-21T08:06:27;97171.28;;;9.22
79756;BMP280;69239;50.678;12.280;2023-11-21T08:08:52;97140.75;;;8.95
79756;BMP280;69239;50.678;12.280;2023-11-21T08:11:17;97170.88;;;9.06
79756;BMP280;69239;50.678;12.280;2023-11-21T08:13:44;97176.00;;;9.03
79756;BMP280;69239;50.678;12.280;2023-11-21T08:16:11;97180.50;;;9.02
79756;BMP280;69239;50.678;12.280;2023-11-21T08:18:37;97178.94;;;9.01
79756;BMP280;69239;50.678;12.280;2023-11-21T08:21:03;97194.41;;;9.12
79756;BMP280;69239;50.678;12.280;2023-11-21T08:23:31;97182.38;;;9.19
79756;BMP280;69239;50.678;12.280;2023-11-21T08:25:57;97181.91;;;9.17
79756;BMP280;69239;50.678;12.280;2023-11-21T08:28:22;97180.19;;;9.13
79756;BMP280;69239;50.678;12.280;2023-11-21T08:30:51;97187.91;;;9.09
79756;BMP280;69239;50.678;12.280;2023-11-21T08:33:17;97200.75;;;9.11
79756;BMP280;69239;50.678;12.280;2023-11-21T08:35:43;97177.50;;;8.95
79756;BMP280;69239;50.678;12.280;2023-11-21T08:38:09;97196.69;;;9.04
79756;BMP280;69239;50.678;12.280;2023-11-21T08:40:36;97198.97;;;8.97
79756;BMP280;69239;50.678;12.280;2023-11-21T08:43:01;97169.09;;;8.76
79756;BMP280;69239;50.678;12.280;2023-11-21T08:45:32;97215.03;;;8.96
79756;BMP280;69239;50.678;12.280;2023-11-21T08:48:00;97211.63;;;8.95
79756;BMP280;69239;50.678;12.280;2023-11-21T08:50:25;97190.88;;;8.77
79756;BMP280;69239;50.678;12.280;2023-11-21T08:52:51;97201.56;;;8.80
79756;BMP280;69239;50.678;12.280;2023-11-21T08:55:17;97216.25;;;8.90
79756;BMP280;69239;50.678;12.280;2023-11-21T08:57:43;97219.75;;;8.85
79756;BMP280;69239;50.678;12.280;2023-11-21T09:00:10;97218.69;;;8.86
79756;BMP280;69239;50.678;12.280;2023-11-21T09:02:40;97196.56;;;8.70
79756;BMP280;69239;50.678;12.280;2023-11-21T09:05:09;97220.41;;;8.82
79756;BMP280;69239;50.678;12.280;2023-11-21T09:07:35;97204.53;;;8.65
79756;BMP280;69239;50.678;12.280;2023-11-21T09:10:02;97196.84;;;8.60
79756;BMP280;69239;50.678;12.280;2023-11-21T09:12:27;97215.56;;;8.75
79756;BMP280;69239;50.678;12.280;2023-11-21T09:14:53;97192.53;;;8.64
79756;BMP280;69239;50.678;12.280;2023-11-21T09:17:19;97206.63;;;8.77
79756;BMP280;69239;50.678;12.280;2023-11-21T09:19:44;97221.22;;;8.91
79756;BMP280;69239;50.678;12.280;2023-11-21T09:22:12;97189.47;;;8.70
79756;BMP280;69239;50.678;12.280;2023-11-21T09:24:38;97226.66;;;9.03
79756;BMP280;69239;50.678;12.280;2023-11-21T09:27:03;97239.16;;;9.06
79756;BMP280;69239;50.678;12.280;2023-11-21T09:29:30;97236.97;;;9.00
79756;BMP280;69239;50.678;12.280;2023-11-21T09:31:57;97236.50;;;8.98
79756;BMP280;69239;50.678;12.280;2023-11-21T09:34:25;97230.97;;;8.99
79756;BMP280;69239;50.678;12.280;2023-11-21T09:36:51;97236.97;;;9.00
79756;BMP280;69239;50.678;12.280;2023-11-21T09:39:17;97242.44;;;9.03
79756;BMP280;69239;50.678;12.280;2023-11-21T09:42:25;97222.38;;;8.85
79756;BMP280;69239;50.678;12.280;2023-11-21T09:47:30;97248.25;;;9.00
79756;BMP280;69239;50.678;12.280;2023-11-21T09:49:56;97257.53;;;9.06
79756;BMP280;69239;50.678;12.280;2023-11-21T09:52:25;97255.88;;;9.11
79756;BMP280;69239;50.678;12.280;2023-11-21T09:54:52;97236.22;;;8.99
79756;BMP280;69239;50.678;12.280;2023-11-21T09:57:21;97259.91;;;9.17
79756;BMP280;69239;50.678;12.280;2023-11-21T09:59:50;97255.13;;;9.19
79756;BMP280;69239;50.678;12.280;2023-11-21T10:02:17;97252.97;;;9.21
79756;BMP280;69239;50.678;12.280;2023-11-21T10:04:44;97259.16;;;9.25
79756;BMP280;69239;50.678;12.280;2023-11-21T10:07:12;97250.09;;;9.31
79756;BMP280;69239;50.678;12.280;2023-11-21T10:09:40;97261.38;;;9.40
79756;BMP280;69239;50.678;12.280;2023-11-21T10:12:09;97250.09;;;9.40
79756;BMP280;69239;50.678;12.280;2023-11-21T10:14:41;97243.13;;;9.35
79756;BMP280;69239;50.678;12.280;2023-11-21T10:17:08;97248.84;;;9.37
79756;BMP280;69239;50.678;12.280;2023-11-21T10:19:39;97256.28;;;9.44
79756;BMP280;69239;50.678;12.280;2023-11-21T10:22:05;97255.50;;;9.43
79756;BMP280;69239;50.678;12.280;2023-11-21T10:24:32;97255.78;;;9.42
79756;BMP280;69239;50.678;12.280;2023-11-21T10:26:58;97253.50;;;9.49
79756;BMP280;69239;50.678;12.280;2023-11-21T10:29:23;97264.34;;;9.47
79756;BMP280;69239;50.678;12.280;2023-11-21T10:31:50;97261.72;;;9.47
79756;BMP280;69239;50.678;12.280;2023-11-21T10:34:20;97259.06;;;9.47
79756;BMP280;69239;50.678;12.280;2023-11-21T10:36:46;97265.88;;;9.48
79756;BMP280;69239;50.678;12.280;2023-11-21T10:39:17;97247.16;;;9.41
79756;BMP280;69239;50.678;12.280;2023-11-21T10:41:52;97256.13;;;9.40
79756;BMP280;69239;50.678;12.280;2023-11-21T10:44:18;97266.97;;;9.47
79756;BMP280;69239;50.678;12.280;2023-11-21T10:46:53;97250.53;;;9.33
79756;BMP280;69239;50.678;12.280;2023-11-21T10:49:21;97255.78;;;9.33
79756;BMP280;69239;50.678;12.280;2023-11-21T10:51:46;97270.47;;;9.43
79756;BMP280;69239;50.678;12.280;2023-11-21T10:54:18;97274.97;;;9.42
79756;BMP280;69239;50.678;12.280;2023-11-21T10:56:44;97280.84;;;9.39
79756;BMP280;69239;50.678;12.280;2023-11-21T10:59:10;97277.00;;;9.36
79756;BMP280;69239;50.678;12.280;2023-11-21T11:01:45;97288.06;;;9.33
79756;BMP280;69239;50.678;12.280;2023-11-21T11:04:15;97285.78;;;9.32
79756;BMP280;69239;50.678;12.280;2023-11-21T11:06:48;97288.72;;;9.30
79756;BMP280;69239;50.678;12.280;2023-11-21T11:09:17;97273.03;;;9.17
79756;BMP280;69239;50.678;12.280;2023-11-21T11:11:42;97278.97;;;9.22
79756;BMP280;69239;50.678;12.280;2023-11-21T11:14:13;97282.19;;;9.28
79756;BMP280;69239;50.678;12.280;2023-11-21T11:16:40;97267.97;;;9.20
79756;BMP280;69239;50.678;12.280;2023-11-21T11:19:07;97281.91;;;9.29
79756;BMP280;69239;50.678;12.280;2023-11-21T11:35:59;97291.03;;;9.32
79756;BMP280;69239;50.678;12.280;2023-11-21T11:38:31;97297.81;;;9.33
79756;BMP280;69239;50.678;12.280;2023-11-21T11:41:01;97286.50;;;9.24
79756;BMP280;69239;50.678;12.280;2023-11-21T11:43:28;97280.78;;;9.22
79756;BMP280;69239;50.678;12.280;2023-11-21T11:45:58;97286.03;;;9.22
79756;BMP280;69239;50.678;12.280;2023-11-21T11:48:28;97294.25;;;9.29
79756;BMP280;69239;50.678;12.280;2023-11-21T11:51:15;97293.47;;;9.28
79756;BMP280;69239;50.678;12.280;2023-11-21T11:53:44;97287.13;;;9.21
79756;BMP280;69239;50.678;12.280;2023-11-21T11:56:28;97237.72;;;8.92
79756;BMP280;69239;50.678;12.280;2023-11-21T11:58:57;97290.69;;;9.25
79756;BMP280;69239;50.678;12.280;2023-11-21T12:01:25;97309.88;;;9.34
79756;BMP280;69239;50.678;12.280;2023-11-21T12:06:45;97294.22;;;9.20
79756;BMP280;69239;50.678;12.280;2023-11-21T12:09:18;97312.63;;;9.29
79756;BMP280;69239;50.678;12.280;2023-11-21T12:11:46;97285.69;;;9.15
79756;BMP280;69239;50.678;12.280;2023-11-21T12:14:12;97316.66;;;9.35
79756;BMP280;69239;50.678;12.280;2023-11-21T12:16:39;97261.69;;;8.99
79756;BMP280;69239;50.678;12.280;2023-11-21T12:19:04;97281.41;;;9.19
79756;BMP280;69239;50.678;12.280;2023-11-21T12:21:30;97295.81;;;9.30
79756;BMP280;69239;50.678;12.280;2023-11-21T12:23:58;97331.56;;;9.48
79756;BMP280;69239;50.678;12.280;2023-11-21T12:26:24;97325.53;;;9.48
79756;BMP280;69239;50.678;12.280;2023-11-21T12:28:53;97328.47;;;9.46
79756;BMP280;69239;50.678;12.280;2023-11-21T12:31:22;97315.13;;;9.34
79756;BMP280;69239;50.678;12.280;2023-11-21T12:33:47;97333.88;;;9.41
79756;BMP280;69239;50.678;12.280;2023-11-21T12:36:13;97332.31;;;9.40
79756;BMP280;69239;50.678;12.280;2023-11-21T12:38:39;97331.06;;;9.38
79756;BMP280;69239;50.678;12.280;2023-11-21T12:41:05;97330.31;;;9.37
79756;BMP280;69239;50.678;12.280;2023-11-21T12:43:31;97338.00;;;9.42
79756;BMP280;69239;50.678;12.280;2023-11-21T12:46:11;97327.69;;;9.37
79756;BMP280;69239;50.678;12.280;2023-11-21T12:48:42;97327.84;;;9.41
79756;BMP280;69239;50.678;12.280;2023-11-21T12:51:09;97321.16;;;9.34
79756;BMP280;69239;50.678;12.280;2023-11-21T12:53:35;97329.81;;;9.35
79756;BMP280;69239;50.678;12.280;2023-11-21T12:56:05;97327.81;;;9.32
79756;BMP280;69239;50.678;12.280;2023-11-21T12:58:31;97331.53;;;9.31
79756;BMP280;69239;50.678;12.280;2023-11-21T13:00:59;97343.56;;;9.32
79756;BMP280;69239;50.678;12.280;2023-11-21T13:03:25;97348.94;;;9.27
79756;BMP280;69239;50.678;12.280;2023-11-21T13:05:53;97324.50;;;9.18
79756;BMP280;69239;50.678;12.280;2023-11-21T13:08:23;97350.97;;;9.30
79756;BMP280;69239;50.678;12.280;2023-11-21T13:10:55;97363.97;;;9.35
79756;BMP280;69239;50.678;12.280;2023-11-21T13:13:21;97360.25;;;9.36
79756;BMP280;69239;50.678;12.280;2023-11-21T13:15:55;97357.78;;;9.31
79756;BMP280;69239;50.678;12.280;2023-11-21T13:18:24;97365.34;;;9.32
79756;BMP280;69239;50.678;12.280;2023-11-21T13:20:50;97351.22;;;9.20
79756;BMP280;69239;50.678;12.280;2023-11-21T13:23:15;97360.81;;;9.24
79756;BMP280;69239;50.678;12.280;2023-11-21T13:25:42;97370.91;;;9.31
79756;BMP280;69239;50.678;12.280;2023-11-21T13:28:08;97375.41;;;9.30
79756;BMP280;69239;50.678;12.280;2023-11-21T13:30:34;97336.81;;;9.09
79756;BMP280;69239;50.678;12.280;2023-11-21T13:33:01;97364.81;;;9.22
79756;BMP280;69239;50.678;12.280;2023-11-21T13:35:28;97384.75;;;9.23
79756;BMP280;69239;50.678;12.280;2023-11-21T13:38:12;97388.31;;;9.18
79756;BMP280;69239;50.678;12.280;2023-11-21T13:40:39;97385.31;;;9.11
79756;BMP280;69239;50.678;12.280;2023-11-21T13:43:12;97397.47;;;9.07
79756;BMP280;69239;50.678;12.280;2023-11-21T13:45:43;97383.66;;;8.93
79756;BMP280;69239;50.678;12.280;2023-11-21T13:48:10;97408.91;;;9.02
79756;BMP280;69239;50.678;12.280;2023-11-21T13:50:45;97398.50;;;8.97
79756;BMP280;69239;50.678;12.280;2023-11-21T13:53:21;97409.13;;;8.92
79756;BMP280;69239;50.678;12.280;2023-11-21T13:55:58;97416.88;;;8.97
79756;BMP280;69239;50.678;12.280;2023-11-21T13:58:28;97412.84;;;8.91
79756;BMP280;69239;50.678;12.280;2023-11-21T14:01:10;97413.09;;;8.81
79756;BMP280;69239;50.678;12.280;2023-11-21T14:06:58;97437.47;;;8.82
79756;BMP280;69239;50.678;12.280;2023-11-21T14:09:50;97435.25;;;8.75
79756;BMP280;69239;50.678;12.280;2023-11-21T14:12:18;97423.44;;;8.64
79756;BMP280;69239;50.678;12.280;2023-11-21T14:14:43;97435.44;;;8.65
79756;BMP280;69239;50.678;12.280;2023-11-21T14:17:10;97431.22;;;8.55
79756;BMP280;69239;50.678;12.280;2023-11-21T14:19:35;97442.47;;;8.56
79756;BMP280;69239;50.678;12.280;2023-11-21T14:22:05;97432.69;;;8.48
79756;BMP280;69239;50.678;12.280;2023-11-21T14:24:31;97429.13;;;8.43
79756;BMP280;69239;50.678;12.280;2023-11-21T14:26:57;97436.97;;;8.43
79756;BMP280;69239;50.678;12.280;2023-11-21T14:29:23;97431.34;;;8.36
79756;BMP280;69239;50.678;12.280;2023-11-21T14:31:49;97439.72;;;8.38